createdAt,value
2022-12-23T00:04:17.154Z,6.20
2022-12-23T00:09:20.646Z,6.20
2022-12-23T00:14:42.309Z,6.20
2022-12-23T00:19:45.668Z,6.10
2022-12-23T00:24:49.112Z,6.10
2022-12-23T00:29:52.375Z,6.00
2022-12-23T00:34:55.745Z,6.00
2022-12-23T00:40:18.015Z,6.00
2022-12-23T00:45:22.142Z,5.90
2022-12-23T00:50:25.606Z,5.80
2022-12-23T00:55:29.072Z,5.80
2022-12-23T01:00:50.860Z,5.80
2022-12-23T01:06:01.615Z,5.80
2022-12-23T01:11:09.482Z,5.80
2022-12-23T01:16:17.306Z,5.80
2022-12-23T01:21:21.366Z,5.80
2022-12-23T01:26:24.718Z,5.70
2022-12-23T01:31:29.284Z,5.70
2022-12-23T01:36:32.712Z,5.70
2022-12-23T01:41:54.335Z,5.70
2022-12-23T01:46:57.765Z,5.70
2022-12-23T01:52:01.507Z,5.60
2022-12-23T01:57:05.332Z,5.60
2022-12-23T02:02:27.623Z,5.50
2022-12-23T02:07:50.690Z,5.50
2022-12-23T02:13:17.123Z,5.50
2022-12-23T02:18:32.586Z,5.40
2022-12-23T02:23:55.845Z,5.40
2022-12-23T02:29:32.355Z,5.40
2022-12-23T02:34:54.844Z,5.30
2022-12-23T02:40:39.994Z,5.20
2022-12-23T02:45:55.414Z,5.20
2022-12-23T02:51:00.986Z,5.10
2022-12-23T02:56:07.881Z,5.10
2022-12-23T03:01:12.709Z,5.10
2022-12-23T03:06:21.963Z,5.00
2022-12-23T03:11:40.711Z,4.90
2022-12-23T03:17:14.939Z,4.80
2022-12-23T03:22:41.393Z,4.80
2022-12-23T03:27:54.814Z,4.80
2022-12-23T03:33:24.874Z,4.70
2022-12-23T03:38:32.173Z,4.70
2022-12-23T03:43:48.412Z,4.70
2022-12-23T03:48:58.484Z,4.60
2022-12-23T03:54:29.838Z,4.60
2022-12-23T03:59:37.253Z,4.60
2022-12-23T04:05:15.137Z,4.60
2022-12-23T04:10:19.483Z,4.60
2022-12-23T04:15:24.792Z,4.50
2022-12-23T04:20:28.227Z,4.40
2022-12-23T04:25:31.704Z,4.50
2022-12-23T04:30:35.267Z,4.50
2022-12-23T04:35:38.832Z,4.40
2022-12-23T04:40:45.374Z,4.40
2022-12-23T04:45:52.794Z,4.30
2022-12-23T04:50:56.187Z,4.30
2022-12-23T04:55:59.322Z,4.20
2022-12-23T05:01:08.875Z,4.10
2022-12-23T05:06:12.373Z,4.10
2022-12-23T05:11:17.850Z,4.10
2022-12-23T05:16:21.504Z,4.10
2022-12-23T05:21:25.321Z,4.10
2022-12-23T05:26:28.559Z,4.10
2022-12-23T05:31:32.368Z,4.20
2022-12-23T05:36:35.877Z,4.20
2022-12-23T05:41:39.360Z,4.10
2022-12-23T05:46:42.850Z,4.10
2022-12-23T05:51:46.466Z,4.10
2022-12-23T05:56:49.977Z,4.10
2022-12-23T06:01:53.569Z,4.10
2022-12-23T06:06:57.033Z,4.20
2022-12-23T06:12:00.827Z,4.20
2022-12-23T06:17:04.063Z,4.20
2022-12-23T06:22:07.771Z,4.30
2022-12-23T06:27:11.559Z,4.30
2022-12-23T06:32:15.200Z,4.30
2022-12-23T06:37:18.970Z,4.30
2022-12-23T06:42:22.628Z,4.20
2022-12-23T06:47:26.187Z,4.20
2022-12-23T06:52:29.718Z,4.20
2022-12-23T06:57:33.430Z,4.20
2022-12-23T07:02:37.303Z,4.30
2022-12-23T07:07:41.117Z,4.20
2022-12-23T07:12:50.348Z,4.20
2022-12-23T07:17:55.594Z,4.20
2022-12-23T07:22:59.432Z,4.20
2022-12-23T07:28:02.962Z,4.20
2022-12-23T07:33:07.427Z,4.30
2022-12-23T07:38:11.353Z,4.30
2022-12-23T07:43:14.953Z,4.30
2022-12-23T07:48:18.107Z,4.30
2022-12-23T07:53:21.695Z,4.30
2022-12-23T07:58:25.385Z,4.40
2022-12-23T08:03:32.949Z,4.40
2022-12-23T08:08:36.795Z,4.40
2022-12-23T08:13:43.091Z,4.40
2022-12-23T08:18:46.830Z,4.40
2022-12-23T08:23:50.388Z,4.50
2022-12-23T08:28:54.173Z,4.50
2022-12-23T08:33:59.542Z,4.60
2022-12-23T08:39:08.766Z,4.60
2022-12-23T08:44:12.983Z,4.50
2022-12-23T08:49:16.846Z,4.50
2022-12-23T08:54:20.897Z,4.50
2022-12-23T08:59:24.488Z,4.60
2022-12-23T09:04:27.924Z,4.60
2022-12-23T09:09:31.524Z,4.50
2022-12-23T09:14:34.987Z,4.60
2022-12-23T09:19:38.389Z,4.50
2022-12-23T09:24:41.892Z,4.50
2022-12-23T09:29:45.348Z,4.50
2022-12-23T09:34:48.928Z,4.50
2022-12-23T09:39:52.449Z,4.40
2022-12-23T09:45:09.217Z,4.40
2022-12-23T09:50:20.561Z,4.40
2022-12-23T09:55:46.714Z,4.50
2022-12-23T10:01:17.639Z,4.60
2022-12-23T10:06:26.253Z,4.60
2022-12-23T10:11:37.546Z,4.60
2022-12-23T10:16:47.691Z,4.60
2022-12-23T10:21:56.622Z,4.70
2022-12-23T10:27:23.050Z,4.70
2022-12-23T10:33:04.698Z,4.60
2022-12-23T10:38:53.323Z,4.60
2022-12-23T10:44:15.590Z,4.70
2022-12-23T10:49:35.456Z,4.80
2022-12-23T10:54:40.442Z,4.90
2022-12-23T10:59:43.771Z,4.90
2022-12-23T11:04:49.638Z,5.00
2022-12-23T11:09:59.280Z,5.10
2022-12-23T11:15:02.936Z,5.10
2022-12-23T11:20:14.047Z,5.20
2022-12-23T11:25:38.715Z,5.30
2022-12-23T11:30:57.104Z,5.40
2022-12-23T11:36:14.819Z,5.50
2022-12-23T11:41:35.990Z,5.60
2022-12-23T11:46:39.441Z,5.70
2022-12-23T11:51:44.580Z,5.60
2022-12-23T11:56:52.946Z,5.60
2022-12-23T12:02:11.764Z,5.70
2022-12-23T12:07:15.762Z,5.60
2022-12-23T12:12:21.431Z,5.70
2022-12-23T12:17:28.628Z,5.80
2022-12-23T12:22:35.330Z,6.00
2022-12-23T12:27:40.767Z,6.00
2022-12-23T12:33:01.531Z,6.10
2022-12-23T12:38:17.595Z,6.20
2022-12-23T12:43:33.828Z,6.30
2022-12-23T12:48:49.834Z,6.40
2022-12-23T12:54:31.730Z,6.40
2022-12-23T12:59:37.545Z,6.40
2022-12-23T13:04:52.947Z,6.50
2022-12-23T13:10:44.253Z,6.50
2022-12-23T13:15:55.745Z,6.50
2022-12-23T13:21:25.646Z,6.40
2022-12-23T13:26:47.431Z,6.40
2022-12-23T13:32:22.166Z,6.40
2022-12-23T13:37:31.386Z,6.40
2022-12-23T13:42:43.467Z,6.30
2022-12-23T13:48:09.769Z,6.30
2022-12-23T13:53:27.039Z,6.30
2022-12-23T13:58:55.375Z,6.20
2022-12-23T14:04:38.046Z,6.10
2022-12-23T14:09:41.790Z,6.10
2022-12-23T14:15:26.771Z,6.10
2022-12-23T14:20:30.424Z,6.10
2022-12-23T14:25:52.054Z,6.00
2022-12-23T14:30:59.938Z,6.00
2022-12-23T14:36:26.634Z,6.00
2022-12-23T14:41:51.183Z,5.90
2022-12-23T14:46:57.760Z,5.80
2022-12-23T14:52:39.382Z,5.80
2022-12-23T14:57:48.374Z,5.70
2022-12-23T15:02:55.823Z,5.70
2022-12-23T15:07:59.490Z,5.70
2022-12-23T15:13:06.414Z,5.70
2022-12-23T15:18:14.413Z,5.60
2022-12-23T15:23:18.553Z,5.70
2022-12-23T15:28:25.034Z,5.70
2022-12-23T15:38:55.365Z,5.70
2022-12-23T15:44:02.203Z,5.60
2022-12-23T15:49:05.909Z,5.60
2022-12-23T15:54:19.070Z,5.60
2022-12-23T15:59:37.514Z,5.60
2022-12-23T16:04:41.108Z,5.60
2022-12-23T16:09:45.170Z,5.60
2022-12-23T16:14:58.105Z,5.70
2022-12-23T16:20:21.189Z,5.60
2022-12-23T16:25:32.400Z,5.60
2022-12-23T16:30:44.825Z,5.60
2022-12-23T16:35:48.799Z,5.60
2022-12-23T16:40:57.415Z,5.60
2022-12-23T16:46:01.149Z,5.60
2022-12-23T16:51:14.140Z,5.50
2022-12-23T16:56:20.140Z,5.50
2022-12-23T17:01:27.366Z,5.50
2022-12-23T17:06:31.363Z,5.50
2022-12-23T17:11:51.780Z,5.50
2022-12-23T17:16:55.191Z,5.50
2022-12-23T17:22:03.966Z,5.50
2022-12-23T17:27:14.921Z,5.50
2022-12-23T17:32:19.730Z,5.50
2022-12-23T17:37:23.665Z,5.60
2022-12-23T17:42:27.249Z,5.60
2022-12-23T17:47:30.966Z,5.60
2022-12-23T17:52:34.610Z,5.50
2022-12-23T17:57:37.810Z,5.50
2022-12-23T18:02:42.526Z,5.50
2022-12-23T18:07:45.933Z,5.40
2022-12-23T18:12:57.025Z,5.40
2022-12-23T18:18:00.845Z,5.40
2022-12-23T18:23:04.089Z,5.30
2022-12-23T18:28:07.891Z,5.30
2022-12-23T18:33:12.776Z,5.30
2022-12-23T18:38:17.661Z,5.30
2022-12-23T18:43:23.420Z,5.30
2022-12-23T18:48:26.967Z,5.30
2022-12-23T18:53:30.831Z,5.30
2022-12-23T18:58:34.329Z,5.30
2022-12-23T19:03:37.610Z,5.30
2022-12-23T19:08:42.288Z,5.40
2022-12-23T19:13:46.031Z,5.30
2022-12-23T19:18:51.108Z,5.30
2022-12-23T19:23:54.707Z,5.40
2022-12-23T19:28:58.179Z,5.40
2022-12-23T19:34:01.977Z,5.30
2022-12-23T19:39:05.427Z,5.30
2022-12-23T19:44:09.547Z,5.30
2022-12-23T19:49:19.643Z,5.30
2022-12-23T19:54:23.979Z,5.20
2022-12-23T19:59:28.029Z,5.20
2022-12-23T20:04:33.514Z,5.20
2022-12-23T20:09:37.829Z,5.10
2022-12-23T20:14:42.808Z,5.10
2022-12-23T20:19:46.724Z,5.10
2022-12-23T20:24:50.455Z,5.10
2022-12-23T20:29:54.635Z,5.10
2022-12-23T20:34:58.773Z,5.10
2022-12-23T20:40:02.268Z,4.90
2022-12-23T20:45:06.610Z,4.80
2022-12-23T20:50:10.995Z,4.80
2022-12-23T20:55:15.275Z,4.70
2022-12-23T21:00:20.208Z,4.50
2022-12-23T21:05:23.746Z,4.40
2022-12-23T21:10:28.339Z,4.30
2022-12-23T21:15:33.607Z,4.20
2022-12-23T21:20:37.571Z,4.10
2022-12-23T21:25:40.871Z,4.00
2022-12-23T21:30:45.384Z,4.10
2022-12-23T21:35:49.312Z,4.00
2022-12-23T21:40:59.138Z,3.90
2022-12-23T21:46:07.952Z,4.00
2022-12-23T21:51:23.858Z,3.90
2022-12-23T21:56:32.026Z,3.80
2022-12-23T22:01:36.687Z,3.60
2022-12-23T22:06:44.463Z,3.60
2022-12-23T22:11:48.851Z,3.60
2022-12-23T22:16:52.443Z,3.60
2022-12-23T22:22:12.090Z,3.70
2022-12-23T22:27:15.786Z,3.80
2022-12-23T22:32:19.579Z,3.70
2022-12-23T22:37:23.088Z,3.60
2022-12-23T22:42:26.587Z,3.40
2022-12-23T22:47:30.193Z,3.30
2022-12-23T22:52:33.967Z,3.20
2022-12-23T22:57:37.410Z,3.20
2022-12-23T23:02:40.946Z,3.30
2022-12-23T23:07:44.606Z,3.10
2022-12-23T23:12:48.229Z,3.10
2022-12-23T23:17:51.591Z,3.20
2022-12-23T23:22:55.039Z,3.30
2022-12-23T23:27:58.807Z,3.30
2022-12-23T23:33:02.348Z,3.20
2022-12-23T23:38:06.061Z,3.10
2022-12-23T23:43:09.298Z,3.10
2022-12-23T23:48:13.764Z,3.00
2022-12-23T23:53:17.382Z,3.00
2022-12-23T23:58:20.587Z,2.80
